ěÝzenÝ letovÚho provozu ╚eskÚ republiky
Letiste: LKLN Aktualizace: 29.07.2021 12:56:29  UTC
 METAR LKLN 29.07. 13:00 ...
METAR LKLN 291300Z AUTO 24013KT 210V270 9999 FEW061 25/12 Q1014=